Accueil
METAR-TAF:

METAR-TAF

Aéroports :

Hanamaki, Japon

latitude: 39-26N, longitude: 141-08E, altitude: 90 m

Observation

Le bulletin a été fait il y a 12 heures et 45 minutes, à 10:00 UTC
Vent calme
Température -5°C
Humidité 79%
Pression 1022 hPa
Visibilité 10 km ou plus
Quelques nuages à une hauteur de 4000 ft

METAR: RJSI 221000Z 00000KT 9999 FEW040 M05/M08 Q1022

Heure: 07:45 (22:45 UTC)


TAF: absent

Observations et prévisions météorologiques de plus de 4000 aéroports (messages METAR et TAF).

Les stations disponibles sont représentées par des disques jaunes et rouges sur la carte.

Passer la souris dessus pour voir le nom de la station.

Cliquer dessus pour voir les observations et prévisions météorologiques.

Pour changer de carte: cliquez sur les boutons verts avec une croix noire pour zoomer, sur le bouton vert avec un tiret pour effectuer un zoom arrière, ou sur les flèches vertes pour les cartes adjacentes.


METAR-TAF: